createdAt,value
2022-10-13T00:00:59.082Z,10.95
2022-10-13T00:03:29.574Z,10.94
2022-10-13T00:05:58.599Z,10.98
2022-10-13T00:08:27.627Z,11.02
2022-10-13T00:10:56.657Z,11.01
2022-10-13T00:13:25.837Z,10.90
2022-10-13T00:15:55.289Z,10.90
2022-10-13T00:18:24.912Z,10.92
2022-10-13T00:20:55.479Z,11.06
2022-10-13T00:23:24.839Z,11.06
2022-10-13T00:25:53.869Z,11.05
2022-10-13T00:28:23.030Z,10.92
2022-10-13T00:30:52.093Z,10.90
2022-10-13T00:33:21.287Z,10.85
2022-10-13T00:35:51.411Z,10.86
2022-10-13T00:38:24.330Z,10.94
2022-10-13T00:40:56.649Z,10.91
2022-10-13T00:43:29.147Z,10.84
2022-10-13T00:45:58.131Z,10.74
2022-10-13T00:48:31.496Z,10.68
2022-10-13T00:51:00.632Z,10.62
2022-10-13T00:53:37.574Z,10.53
2022-10-13T00:56:10.625Z,10.41
2022-10-13T00:58:41.302Z,10.37
2022-10-13T01:01:10.452Z,10.27
2022-10-13T01:03:39.797Z,10.25
2022-10-13T01:06:10.151Z,10.22
2022-10-13T01:08:40.608Z,10.11
2022-10-13T01:11:35.129Z,10.07
2022-10-13T01:14:14.865Z,9.99
2022-10-13T01:16:51.949Z,9.95
2022-10-13T01:20:05.796Z,9.86
2022-10-13T01:22:54.261Z,9.72
2022-10-13T01:25:50.391Z,9.58
2022-10-13T01:28:49.426Z,9.55
2022-10-13T01:31:25.795Z,9.55
2022-10-13T01:34:05.365Z,9.44
2022-10-13T01:36:41.021Z,9.43
2022-10-13T01:39:21.852Z,9.39
2022-10-13T01:41:55.593Z,9.31
2022-10-13T01:44:31.000Z,9.15
2022-10-13T01:47:04.119Z,9.06
2022-10-13T01:49:37.181Z,9.01
2022-10-13T01:52:11.624Z,9.05
2022-10-13T01:54:40.860Z,9.07
2022-10-13T01:57:31.804Z,9.00
2022-10-13T02:00:04.026Z,8.99
2022-10-13T02:02:54.736Z,9.06
2022-10-13T02:05:39.808Z,8.96
2022-10-13T02:08:16.708Z,8.84
2022-10-13T02:10:51.814Z,8.68
2022-10-13T02:13:25.832Z,8.65
2022-10-13T02:16:01.123Z,8.72
2022-10-13T02:18:36.970Z,8.81
2022-10-13T02:21:08.316Z,8.96
2022-10-13T02:23:37.584Z,9.08
2022-10-13T02:26:07.166Z,9.06
2022-10-13T02:28:38.589Z,8.99
2022-10-13T02:31:09.628Z,8.96
2022-10-13T02:33:40.040Z,8.95
2022-10-13T02:36:09.301Z,8.80
2022-10-13T02:38:38.341Z,8.74
2022-10-13T02:41:07.581Z,8.76
2022-10-13T02:43:37.976Z,8.85
2022-10-13T02:46:07.270Z,8.99
2022-10-13T02:48:36.324Z,8.97
2022-10-13T02:51:07.177Z,9.18
2022-10-13T02:53:36.217Z,9.23
2022-10-13T02:56:05.385Z,9.22
2022-10-13T02:58:37.749Z,9.24
2022-10-13T03:01:08.385Z,9.23
2022-10-13T03:03:38.146Z,9.22
2022-10-13T03:06:09.557Z,9.30
2022-10-13T03:08:40.323Z,9.47
2022-10-13T03:11:09.451Z,9.39
2022-10-13T03:13:38.526Z,9.42
2022-10-13T03:16:09.409Z,9.34
2022-10-13T03:18:38.449Z,9.19
2022-10-13T03:21:09.033Z,9.17
2022-10-13T03:23:41.485Z,9.29
2022-10-13T03:26:10.584Z,9.26
2022-10-13T03:28:39.785Z,9.11
2022-10-13T03:31:12.244Z,9.05
2022-10-13T03:33:42.145Z,8.98
2022-10-13T03:36:14.428Z,8.98
2022-10-13T03:38:45.139Z,8.92
2022-10-13T03:41:16.645Z,8.89
2022-10-13T03:43:50.322Z,8.76
2022-10-13T03:46:19.820Z,8.69
2022-10-13T03:48:49.603Z,8.73
2022-10-13T03:51:22.753Z,8.81
2022-10-13T03:53:53.640Z,8.80
2022-10-13T03:56:25.827Z,8.75
2022-10-13T03:58:57.795Z,8.80
2022-10-13T04:01:29.822Z,8.85
2022-10-13T04:04:02.321Z,8.85
2022-10-13T04:06:32.978Z,8.86
2022-10-13T04:09:02.050Z,8.86
2022-10-13T04:11:31.398Z,8.85
2022-10-13T04:14:00.838Z,8.82
2022-10-13T04:16:32.455Z,8.82
2022-10-13T04:19:05.215Z,8.80
2022-10-13T04:21:36.548Z,8.73
2022-10-13T04:24:06.809Z,8.76
2022-10-13T04:26:38.001Z,8.66
2022-10-13T04:29:13.658Z,8.66
2022-10-13T04:31:43.951Z,8.52
2022-10-13T04:34:13.587Z,8.50
2022-10-13T04:36:43.972Z,8.44
2022-10-13T04:39:12.986Z,8.32
2022-10-13T04:41:42.341Z,8.29
2022-10-13T04:44:11.686Z,8.23
2022-10-13T04:46:40.737Z,8.34
2022-10-13T04:49:09.748Z,8.47
2022-10-13T04:51:40.536Z,8.39
2022-10-13T04:54:11.237Z,8.50
2022-10-13T04:56:40.281Z,8.46
2022-10-13T04:59:09.300Z,8.48
2022-10-13T05:01:38.352Z,8.52
2022-10-13T05:04:12.442Z,8.52
2022-10-13T05:07:12.469Z,8.45
2022-10-13T05:09:33.833Z,8.45
2022-10-13T05:12:03.089Z,8.36
2022-10-13T05:14:35.019Z,8.26
2022-10-13T05:17:04.521Z,8.38
2022-10-13T05:19:33.568Z,8.29
2022-10-13T05:22:02.685Z,8.22
2022-10-13T05:24:37.417Z,8.28
2022-10-13T05:27:09.805Z,8.24
2022-10-13T05:29:39.590Z,8.25
2022-10-13T05:32:09.446Z,8.21
2022-10-13T05:34:38.620Z,8.20
2022-10-13T05:37:07.646Z,8.27
2022-10-13T05:39:38.011Z,8.26
2022-10-13T05:42:07.061Z,8.33
2022-10-13T05:44:37.528Z,8.33
2022-10-13T05:47:07.702Z,8.28
2022-10-13T05:49:39.815Z,8.30
2022-10-13T05:52:13.480Z,8.29
2022-10-13T05:54:47.261Z,8.23
2022-10-13T05:57:20.106Z,8.16
2022-10-13T05:59:54.653Z,8.32
2022-10-13T06:02:26.748Z,8.29
2022-10-13T06:04:58.561Z,8.35
2022-10-13T06:07:27.685Z,8.38
2022-10-13T06:09:59.572Z,8.37
2022-10-13T06:12:28.551Z,8.46
2022-10-13T06:14:57.612Z,8.51
2022-10-13T06:17:26.757Z,8.63
2022-10-13T06:19:55.907Z,8.69
2022-10-13T06:22:24.961Z,8.80
2022-10-13T06:25:00.265Z,8.87
2022-10-13T06:27:29.569Z,8.84
2022-10-13T06:29:59.428Z,8.97
2022-10-13T06:32:28.456Z,9.06
2022-10-13T06:34:57.489Z,8.98
2022-10-13T06:37:27.590Z,9.00
2022-10-13T06:39:58.265Z,9.10
2022-10-13T06:42:30.874Z,9.18
2022-10-13T06:45:11.804Z,9.18
2022-10-13T06:47:42.586Z,9.22
2022-10-13T06:50:11.729Z,9.29
2022-10-13T06:52:40.804Z,9.40
2022-10-13T06:55:11.477Z,9.40
2022-10-13T06:57:40.568Z,9.53
2022-10-13T07:00:11.565Z,9.65
2022-10-13T07:02:41.122Z,9.76
2022-10-13T07:05:10.630Z,9.89
2022-10-13T07:07:39.646Z,10.04
2022-10-13T07:10:10.843Z,10.17
2022-10-13T07:12:39.905Z,10.35
2022-10-13T07:15:10.130Z,10.52
2022-10-13T07:17:41.638Z,10.55
2022-10-13T07:20:11.778Z,10.70
2022-10-13T07:22:40.849Z,10.74
2022-10-13T07:25:11.660Z,10.90
2022-10-13T07:27:41.114Z,11.08
2022-10-13T07:30:11.257Z,11.33
2022-10-13T07:32:42.130Z,11.56
2022-10-13T07:35:12.244Z,11.77
2022-10-13T07:37:41.327Z,11.86
2022-10-13T07:40:13.068Z,12.05
2022-10-13T07:42:42.126Z,12.22
2022-10-13T07:45:12.379Z,12.30
2022-10-13T07:47:41.399Z,12.52
2022-10-13T07:50:11.956Z,12.64
2022-10-13T07:52:40.992Z,12.78
2022-10-13T07:55:14.789Z,12.87
2022-10-13T07:57:43.862Z,12.96
2022-10-13T08:00:14.208Z,13.09
2022-10-13T08:02:43.369Z,13.22
2022-10-13T08:05:12.456Z,13.39
2022-10-13T08:07:41.666Z,13.43
2022-10-13T08:10:11.117Z,13.51
2022-10-13T08:12:41.700Z,13.65
2022-10-13T08:15:12.045Z,13.78
2022-10-13T08:17:41.128Z,13.96
2022-10-13T08:20:11.148Z,14.19
2022-10-13T08:22:40.461Z,14.31
2022-10-13T08:25:10.756Z,14.42
2022-10-13T08:27:51.169Z,14.56
2022-10-13T08:30:21.255Z,14.71
2022-10-13T08:32:50.625Z,14.76
2022-10-13T08:35:19.642Z,14.60
2022-10-13T08:37:48.723Z,14.74
2022-10-13T08:40:23.056Z,14.78
2022-10-13T08:42:58.074Z,14.96
2022-10-13T08:45:46.931Z,15.20
2022-10-13T08:48:19.881Z,15.46
2022-10-13T08:50:52.591Z,15.54
2022-10-13T08:53:30.784Z,15.67
2022-10-13T08:56:03.942Z,15.91
2022-10-13T08:58:40.041Z,16.15
2022-10-13T09:01:16.370Z,16.41
2022-10-13T09:03:55.559Z,16.46
2022-10-13T09:06:28.794Z,16.58
2022-10-13T09:09:01.545Z,16.72
2022-10-13T09:11:33.941Z,16.77
2022-10-13T09:14:07.476Z,16.96
2022-10-13T09:16:40.027Z,16.98
2022-10-13T09:19:22.880Z,17.06
2022-10-13T09:21:54.086Z,17.23
2022-10-13T09:24:26.511Z,17.33
2022-10-13T09:27:08.048Z,17.40
2022-10-13T09:29:43.718Z,17.63
2022-10-13T09:32:19.757Z,17.70
2022-10-13T09:34:50.031Z,17.87
2022-10-13T09:37:22.610Z,18.03
2022-10-13T09:40:15.321Z,18.05
2022-10-13T09:42:52.924Z,18.18
2022-10-13T09:45:27.728Z,18.29
2022-10-13T09:48:03.819Z,18.44
2022-10-13T09:50:36.025Z,18.67
2022-10-13T09:53:22.357Z,18.97
2022-10-13T09:55:52.669Z,19.23
2022-10-13T09:58:29.248Z,19.42
2022-10-13T10:01:01.007Z,19.68
2022-10-13T10:03:36.772Z,19.77
2022-10-13T10:09:02.606Z,19.62
2022-10-13T10:11:38.995Z,19.77
2022-10-13T10:14:18.469Z,20.13
2022-10-13T10:17:00.739Z,20.43
2022-10-13T10:19:45.235Z,20.68
2022-10-13T10:22:24.744Z,20.94
2022-10-13T10:25:01.448Z,20.79
2022-10-13T10:27:42.869Z,20.58
2022-10-13T10:30:17.610Z,20.57
2022-10-13T10:32:55.094Z,20.40
2022-10-13T10:35:41.044Z,19.91
2022-10-13T10:38:27.235Z,20.11
2022-10-13T10:41:06.387Z,20.41
2022-10-13T10:43:53.195Z,20.56
2022-10-13T10:46:25.428Z,20.54
2022-10-13T10:49:01.666Z,20.31
2022-10-13T10:51:36.714Z,20.29
2022-10-13T10:54:27.852Z,20.57
2022-10-13T10:57:03.393Z,20.73
2022-10-13T10:59:50.212Z,20.94
2022-10-13T11:02:45.951Z,20.65
2022-10-13T11:05:18.794Z,20.23
2022-10-13T11:08:01.159Z,20.16
2022-10-13T11:10:30.776Z,20.07
2022-10-13T11:13:25.884Z,20.70
2022-10-13T11:15:57.322Z,20.70
2022-10-13T11:19:07.365Z,20.55
2022-10-13T11:22:20.875Z,20.57
2022-10-13T11:25:08.825Z,20.61
2022-10-13T11:27:47.293Z,20.46
2022-10-13T11:30:51.563Z,21.05
2022-10-13T11:33:59.255Z,21.25
2022-10-13T11:36:49.343Z,20.94
2022-10-13T11:40:06.958Z,21.20
2022-10-13T11:43:17.428Z,21.38
2022-10-13T11:46:26.421Z,21.33
2022-10-13T11:49:44.973Z,21.42
2022-10-13T11:52:49.970Z,21.67
2022-10-13T11:55:39.375Z,21.92
2022-10-13T11:58:17.338Z,22.22
2022-10-13T12:01:00.159Z,21.95
2022-10-13T12:03:32.552Z,21.72
2022-10-13T12:06:07.503Z,21.42
2022-10-13T12:08:39.307Z,21.02
2022-10-13T12:11:26.626Z,21.31
2022-10-13T12:13:57.044Z,22.20
2022-10-13T12:16:31.251Z,22.93
2022-10-13T12:19:20.232Z,23.30
2022-10-13T12:21:52.447Z,23.51
2022-10-13T12:24:26.823Z,23.37
2022-10-13T12:26:59.218Z,23.41
2022-10-13T12:29:37.395Z,23.61
2022-10-13T12:32:21.017Z,23.53
2022-10-13T12:34:55.067Z,23.48
2022-10-13T12:37:33.557Z,23.85
2022-10-13T12:40:04.729Z,23.44
2022-10-13T12:42:39.745Z,22.84
2022-10-13T12:45:16.703Z,22.99
2022-10-13T12:47:52.334Z,22.37
2022-10-13T12:50:39.572Z,21.80
2022-10-13T12:53:20.163Z,22.06
2022-10-13T12:55:58.830Z,21.92
2022-10-13T12:58:32.163Z,22.13
2022-10-13T13:01:33.281Z,22.64
2022-10-13T13:04:17.205Z,22.48
2022-10-13T13:06:57.560Z,23.08
2022-10-13T13:09:29.508Z,23.57
2022-10-13T13:12:27.559Z,23.58
2022-10-13T13:14:58.462Z,23.30
2022-10-13T13:17:53.352Z,23.30
2022-10-13T13:20:27.001Z,23.86
2022-10-13T13:22:56.817Z,24.62
2022-10-13T13:25:26.906Z,25.40
2022-10-13T13:27:55.995Z,25.41
2022-10-13T13:30:27.401Z,25.90
2022-10-13T13:32:56.404Z,27.31
2022-10-13T13:35:25.407Z,28.93
2022-10-13T13:37:58.488Z,31.39
2022-10-13T13:40:29.390Z,31.06
2022-10-13T13:42:58.437Z,30.31
2022-10-13T13:45:35.858Z,29.71
2022-10-13T13:48:05.937Z,29.01
2022-10-13T13:50:37.792Z,28.94
2022-10-13T13:53:07.335Z,29.83
2022-10-13T13:55:36.686Z,29.94
2022-10-13T13:58:07.588Z,29.98
2022-10-13T14:00:38.493Z,29.38
2022-10-13T14:03:07.697Z,30.28
2022-10-13T14:05:40.613Z,31.91
2022-10-13T14:08:10.930Z,33.25
2022-10-13T14:10:41.359Z,33.88
2022-10-13T14:13:10.368Z,34.32
2022-10-13T14:15:40.793Z,35.10
2022-10-13T14:18:09.845Z,35.34
2022-10-13T14:20:42.538Z,36.26
2022-10-13T14:23:11.639Z,36.77
2022-10-13T14:25:40.662Z,37.07
2022-10-13T14:28:12.494Z,36.90
2022-10-13T14:30:45.038Z,36.43
2022-10-13T14:33:19.245Z,35.21
2022-10-13T14:35:48.340Z,35.01
2022-10-13T14:38:18.627Z,34.40
2022-10-13T14:40:49.916Z,33.92
2022-10-13T14:43:19.025Z,33.78
2022-10-13T14:45:49.501Z,34.04
2022-10-13T14:48:22.630Z,33.76
2022-10-13T14:50:53.688Z,33.49
2022-10-13T14:53:24.592Z,32.38
2022-10-13T14:55:54.063Z,31.74
2022-10-13T14:58:23.043Z,31.27
2022-10-13T15:00:53.740Z,31.04
2022-10-13T15:03:22.996Z,29.75
2022-10-13T15:05:52.109Z,29.19
2022-10-13T15:08:25.513Z,27.74
2022-10-13T15:11:00.840Z,27.03
2022-10-13T15:13:30.443Z,26.04
2022-10-13T15:16:02.579Z,25.00
2022-10-13T15:18:32.042Z,23.91
2022-10-13T15:21:01.290Z,22.96
2022-10-13T15:23:30.416Z,22.25
2022-10-13T15:26:01.467Z,21.79
2022-10-13T15:28:35.732Z,21.43
2022-10-13T15:31:06.851Z,21.15
2022-10-13T15:33:36.435Z,20.86
2022-10-13T15:36:05.974Z,20.56
2022-10-13T15:38:35.641Z,20.18
2022-10-13T15:41:06.920Z,19.79
2022-10-13T15:43:36.257Z,19.33
2022-10-13T15:46:09.606Z,18.83
2022-10-13T15:48:38.836Z,18.34
2022-10-13T15:51:14.815Z,17.90
2022-10-13T15:53:44.023Z,17.49
2022-10-13T15:56:13.157Z,17.14
2022-10-13T15:58:42.418Z,16.83
2022-10-13T16:01:15.154Z,16.54
2022-10-13T16:03:44.284Z,16.25
2022-10-13T16:06:14.416Z,15.93
2022-10-13T16:08:44.795Z,15.69
2022-10-13T16:11:16.862Z,15.41
2022-10-13T16:13:47.832Z,15.22
2022-10-13T16:16:19.110Z,15.00
2022-10-13T16:18:48.205Z,14.77
2022-10-13T16:21:20.146Z,14.55
2022-10-13T16:23:50.150Z,14.32
2022-10-13T16:26:19.424Z,14.28
2022-10-13T16:28:48.719Z,14.26
2022-10-13T16:31:19.191Z,14.16
2022-10-13T16:33:48.220Z,14.00
2022-10-13T16:36:19.345Z,13.78
2022-10-13T16:38:54.766Z,13.66
2022-10-13T16:41:24.633Z,13.58
2022-10-13T16:43:53.683Z,13.41
2022-10-13T16:46:24.253Z,13.28
2022-10-13T16:48:53.320Z,13.12
2022-10-13T16:51:25.178Z,13.06
2022-10-13T16:54:02.805Z,13.04
2022-10-13T16:56:33.591Z,12.97
2022-10-13T16:59:05.530Z,12.86
2022-10-13T17:01:37.330Z,12.57
2022-10-13T17:04:07.525Z,12.36
2022-10-13T17:06:38.693Z,12.35
2022-10-13T17:09:07.772Z,12.24
2022-10-13T17:11:37.338Z,12.24
2022-10-13T17:14:07.406Z,12.31
2022-10-13T17:16:37.945Z,12.42
2022-10-13T17:19:07.330Z,12.39
2022-10-13T17:21:38.379Z,12.29
2022-10-13T17:24:10.967Z,12.20
2022-10-13T17:26:40.375Z,12.08
2022-10-13T17:29:09.438Z,11.93
2022-10-13T17:31:39.957Z,11.70
2022-10-13T17:34:09.334Z,11.49
2022-10-13T17:36:38.444Z,11.53
2022-10-13T17:39:12.170Z,11.53
2022-10-13T17:41:43.988Z,11.42
2022-10-13T17:44:13.001Z,11.53
2022-10-13T17:46:43.469Z,11.58
2022-10-13T17:49:13.861Z,11.59
2022-10-13T17:51:44.816Z,11.58
2022-10-13T17:54:16.426Z,11.46
2022-10-13T17:56:46.305Z,11.29
2022-10-13T17:59:16.412Z,11.21
2022-10-13T18:01:47.128Z,11.17
2022-10-13T18:04:19.845Z,11.02
2022-10-13T18:06:49.073Z,11.15
2022-10-13T18:09:23.309Z,11.14
2022-10-13T18:11:55.187Z,11.15
2022-10-13T18:14:26.028Z,11.08
2022-10-13T18:16:56.511Z,11.01
2022-10-13T18:19:25.645Z,10.98
2022-10-13T18:21:54.911Z,11.09
2022-10-13T18:24:25.119Z,11.32
2022-10-13T18:26:57.012Z,11.12
2022-10-13T18:29:26.206Z,11.04
2022-10-13T18:31:57.490Z,10.85
2022-10-13T18:34:26.572Z,10.87
2022-10-13T18:36:56.061Z,11.04
2022-10-13T18:39:27.293Z,11.05
2022-10-13T18:41:58.010Z,10.97
2022-10-13T18:44:36.121Z,10.99
2022-10-13T18:47:07.012Z,10.86
2022-10-13T18:49:36.038Z,10.56
2022-10-13T18:52:05.557Z,10.45
2022-10-13T18:54:38.737Z,10.42
2022-10-13T18:57:08.131Z,10.50
2022-10-13T18:59:38.796Z,10.45
2022-10-13T19:02:14.531Z,10.38
2022-10-13T19:04:44.240Z,10.50
2022-10-13T19:07:13.293Z,10.56
2022-10-13T19:09:42.503Z,10.53
2022-10-13T19:12:11.650Z,10.35
2022-10-13T19:14:40.955Z,10.58
2022-10-13T19:17:11.778Z,10.49
2022-10-13T19:19:41.521Z,10.38
2022-10-13T19:22:12.454Z,10.22
2022-10-13T19:24:41.730Z,10.10
2022-10-13T19:27:11.718Z,9.99
2022-10-13T19:29:41.931Z,9.98
2022-10-13T19:32:14.216Z,10.04
2022-10-13T19:34:43.509Z,10.00
2022-10-13T19:37:16.423Z,10.11
2022-10-13T19:39:45.466Z,10.15
2022-10-13T19:42:14.599Z,10.15
2022-10-13T19:44:44.480Z,10.06
2022-10-13T19:47:14.911Z,10.11
2022-10-13T19:49:43.946Z,10.13
2022-10-13T19:52:12.932Z,10.24
2022-10-13T19:54:42.533Z,10.25
2022-10-13T19:57:11.606Z,10.18
2022-10-13T19:59:45.302Z,10.04
2022-10-13T20:02:19.513Z,10.10
2022-10-13T20:04:48.715Z,10.01
2022-10-13T20:07:17.936Z,9.92
2022-10-13T20:09:47.398Z,9.95
2022-10-13T20:12:16.457Z,9.94
2022-10-13T20:14:48.609Z,10.09
2022-10-13T20:17:19.290Z,10.12
2022-10-13T20:19:48.672Z,9.99
2022-10-13T20:22:17.714Z,9.83
2022-10-13T20:24:46.916Z,9.87
2022-10-13T20:27:16.006Z,9.78
2022-10-13T20:29:45.032Z,9.83
2022-10-13T20:32:15.200Z,9.65
2022-10-13T20:34:45.713Z,9.73
2022-10-13T20:37:14.857Z,9.69
2022-10-13T20:39:44.157Z,9.83
2022-10-13T20:42:15.732Z,9.79
2022-10-13T20:44:44.934Z,9.64
2022-10-13T20:47:14.077Z,9.66
2022-10-13T20:49:43.498Z,9.70
2022-10-13T20:52:13.889Z,9.70
2022-10-13T20:54:43.052Z,9.61
2022-10-13T20:57:12.221Z,9.68
2022-10-13T20:59:41.402Z,9.76
2022-10-13T21:02:13.859Z,9.69
2022-10-13T21:04:43.068Z,9.62
2022-10-13T21:07:13.604Z,9.47
2022-10-13T21:09:42.752Z,9.30
2022-10-13T21:12:11.816Z,9.18
2022-10-13T21:14:40.906Z,9.18
2022-10-13T21:17:11.501Z,9.22
2022-10-13T21:19:40.752Z,9.38
2022-10-13T21:22:09.849Z,9.51
2022-10-13T21:24:40.316Z,9.47
2022-10-13T21:27:09.315Z,9.47
2022-10-13T21:29:38.421Z,9.35
2022-10-13T21:32:07.621Z,9.49
2022-10-13T21:34:37.487Z,9.42
2022-10-13T21:37:06.529Z,9.38
2022-10-13T21:39:35.812Z,9.40
2022-10-13T21:42:06.596Z,9.33
2022-10-13T21:44:35.659Z,9.43
2022-10-13T21:47:08.292Z,9.26
2022-10-13T21:49:37.688Z,9.20
2022-10-13T21:52:06.800Z,9.27
2022-10-13T21:54:35.937Z,9.37
2022-10-13T21:57:06.382Z,9.36
2022-10-13T21:59:35.504Z,9.30
2022-10-13T22:02:04.673Z,9.22
2022-10-13T22:04:33.788Z,9.23
2022-10-13T22:07:03.032Z,9.18
2022-10-13T22:09:32.784Z,8.97
2022-10-13T22:12:02.239Z,8.91
2022-10-13T22:14:33.449Z,8.83
2022-10-13T22:17:07.885Z,8.98
2022-10-13T22:19:37.084Z,8.94
2022-10-13T22:22:06.242Z,8.84
2022-10-13T22:24:35.291Z,8.83
2022-10-13T22:27:04.619Z,8.87
2022-10-13T22:29:35.367Z,8.99
2022-10-13T22:32:04.519Z,9.07
2022-10-13T22:34:33.553Z,9.05
2022-10-13T22:37:02.933Z,9.06
2022-10-13T22:39:33.872Z,8.90
2022-10-13T22:42:10.461Z,8.90
2022-10-13T22:44:43.624Z,8.93
2022-10-13T22:47:12.745Z,8.86
2022-10-13T22:49:41.739Z,8.89
2022-10-13T22:52:11.496Z,9.06
2022-10-13T22:54:40.572Z,9.06
2022-10-13T22:57:11.729Z,9.05
2022-10-13T22:59:42.363Z,9.04
2022-10-13T23:02:11.490Z,8.89
2022-10-13T23:04:40.859Z,8.92
2022-10-13T23:07:09.905Z,8.96
2022-10-13T23:09:38.901Z,8.94
2022-10-13T23:12:10.956Z,8.88
2022-10-13T23:14:41.396Z,8.79
2022-10-13T23:17:10.490Z,8.84
2022-10-13T23:19:39.509Z,8.81
2022-10-13T23:22:11.672Z,8.76
2022-10-13T23:24:40.624Z,8.87
2022-10-13T23:27:09.622Z,8.82
2022-10-13T23:29:38.689Z,8.94
2022-10-13T23:32:10.064Z,8.92
2022-10-13T23:34:39.205Z,8.89
2022-10-13T23:37:09.497Z,8.77
2022-10-13T23:39:39.044Z,8.68
2022-10-13T23:42:11.162Z,8.68
2022-10-13T23:44:40.288Z,8.72
2022-10-13T23:47:10.688Z,8.68
2022-10-13T23:49:39.893Z,8.70
2022-10-13T23:52:11.083Z,8.67
2022-10-13T23:54:40.302Z,8.65
2022-10-13T23:57:09.326Z,8.66
2022-10-13T23:59:38.387Z,8.58
